Latest Coastal Weather Observations for Troughton Island

IDD60701

Issued at 6:11 pm CST Sunday 19 November 2017 (issued every 10 minutes, with the page automatically refreshed every 10 minutes)

About coastal observations | Map of coastal stations | Coastal observations for NT | Marine services | Other Formats
Station Details ID: 001007 Name: TROUGHTON ISLAND Lat: -13.75 Lon: 126.15 Height: 6.0 m
Data from the previous 72 hours. | See also: Recent months at Troughton Island
Date/Time
CST
Temp
°C
Wind Pressure Rain since
9am
mm
Weather Cloud Vis
km
Sea
Height
m
Swell
Dir  Spd
kts
Gust
kts
hPa Trend Height
m
Period
s
Dir
19/06:00pm 28.9 ENE 4 5 1007.7 - 4.2 - - - - - - -
19/05:30pm 28.9 E 4 5 1007.2 - 4.2 - - - - - - -
19/05:00pm 29.1 E 4 5 1007.2 - 4.2 - - - - - - -
19/04:30pm 29.0 E 4 6 1007.2 - 4.2 Recent precip. - - - - - -
19/04:00pm 28.8 SE 4 6 1007.5 - 4.0 - - - - - - -
19/03:30pm 28.6 SE 5 7 1008.0 - 4.0 - - - - - - -
19/03:00pm 28.6 SSE 5 8 1008.2 - 4.0 - - - - - - -
19/02:30pm 27.8 SSE 5 7 1008.9 - 4.0 - - - - - - -
19/02:00pm 26.9 E 5 7 1008.9 - 4.0 - - - - - - -
19/01:30pm 27.2 NE 9 11 1009.2 - 3.2 Recent precip. - - - - - -
19/01:00pm 25.8 ENE 10 15 1009.6 - 3.2 - - - - - - -
19/12:44pm 26.4 E 21 27 1009.8 - 2.2 - - - - - - -
19/12:30pm 27.1 ENE 21 26 1009.9 - 0.2 - - - - - - -
19/12:03pm 29.4 E 13 25 1010.3 - 0.0 - - - - - - -
19/12:00pm 30.9 E 10 15 1010.1 - 0.0 - - - - - - -
19/11:30am 31.8 ESE 7 9 1009.9 - 0.0 - - - - - - -
19/11:00am 32.0 E 5 7 1009.9 - 0.0 - - - - - - -
19/10:30am 32.0 E 5 7 1010.3 - 2.2 - - - - - - -
19/10:00am 31.4 SSE 5 7 1010.0 - 2.2 - - - - - - -
19/09:30am 31.1 S 5 7 1009.9 - 2.2 - - - - - - -
19/09:00am 30.9 SSW 5 6 1009.6 - 2.2 - - - - - - -
19/08:30am 30.2 W 3 4 1009.6 - 2.2 - - - - - - -
19/08:00am 30.3 S 1 4 1009.6 - 2.2 - - - - - - -
19/07:30am 29.8 CALM 0 0 1009.4 - 2.2 - - - - - - -
19/07:00am 28.7 CALM 0 0 1008.8 - 2.2 - - - - - - -
19/06:30am 28.7 CALM 0 0 1008.3 - 2.2 - - - - - - -
19/06:00am 28.5 CALM 0 0 1008.0 - 2.2 - - - - - - -
19/05:30am 28.8 CALM 0 0 1007.7 - 2.2 - - - - - - -
19/05:00am 28.9 CALM 0 0 1007.7 - 2.2 - - - - - - -
19/04:30am 28.7 CALM 0 0 1007.9 - 2.2 - - - - - - -
19/04:00am 28.6 CALM 0 0 1007.8 - 2.2 - - - - - - -
19/03:30am 29.1 NE 2 4 1007.9 - 2.2 - - - - - - -
19/03:00am 29.2 NNE 4 5 1008.0 - 2.2 - - - - - - -
19/02:30am 29.3 NNE 5 6 1007.9 - 2.2 - - - - - - -
19/02:00am 29.4 N 5 7 1007.9 - 2.2 - - - - - - -
19/01:30am 29.5 N 5 6 1008.2 - 2.2 - - - - - - -
19/01:00am 29.7 N 7 8 1008.6 - 2.2 - - - - - - -
19/12:30am 29.7 NNE 6 7 1009.6 - 2.2 - - - - - - -
19/12:00am 29.7 NNE 7 8 1009.7 - 2.2 - - - - - - -
 
Date/Time
CST
Temp
°C
Wind Pressure Rain since
9am
mm
Weather Cloud Vis
km
Sea
Height
m
Swell
Dir  Spd
kts
Gust
kts
hPa Trend Height
m
Period
s
Dir
18/11:30pm 29.8 NNE 7 9 1010.0 - 2.2 - - - - - - -
18/11:00pm 29.7 NNE 7 10 1010.0 - 2.2 - - - - - - -
18/10:30pm 29.9 NNE 9 11 1009.9 - 2.2 - - - - - - -
18/10:00pm 29.7 NE 9 12 1009.7 - 2.2 - - - - - - -
18/09:30pm 29.7 NE 12 15 1009.1 - 2.2 - - - - - - -
18/09:00pm 29.8 NE 12 14 1008.3 - 2.2 - - - - - - -
18/08:30pm 29.6 NE 12 15 1008.0 - 2.2 - - - - - - -
18/08:00pm 29.6 NNE 11 14 1007.6 - 2.2 - - - - - - -
18/07:30pm 29.8 NNE 11 15 1007.3 - 2.2 - - - - - - -
18/07:00pm 29.9 NE 11 13 1006.9 - 2.2 - - - - - - -
18/06:30pm 30.7 NNE 12 16 1006.8 - 2.2 - - - - - - -
18/06:00pm 31.0 NNE 14 16 1006.5 - 2.2 - - - - - - -
18/05:30pm 31.3 NNE 13 16 1006.3 - 2.2 - - - - - - -
18/05:00pm 31.4 NNE 12 15 1006.2 - 2.2 - - - - - - -
18/04:30pm 31.6 NNE 13 16 1006.1 - 2.2 - - - - - - -
18/04:00pm 31.9 NE 12 15 1006.2 - 2.2 - - - - - - -
18/03:30pm 32.1 NE 11 13 1006.5 - 2.2 - - - - - - -
18/03:00pm 31.8 ENE 9 11 1006.6 - 2.2 - - - - - - -
18/02:30pm 31.2 ENE 9 11 1006.9 - 2.2 - - - - - - -
18/02:00pm 31.0 ENE 8 10 1007.2 - 2.2 - - - - - - -
18/01:30pm 30.9 ENE 9 11 1007.5 - 2.2 - - - - - - -
18/01:00pm 30.9 E 7 9 1007.9 - 2.2 - - - - - - -
18/12:30pm 29.7 ENE 7 9 1008.4 - 2.2 - - - - - - -
18/12:00pm 29.0 NE 7 9 1008.9 - 2.2 - - - - - - -
18/11:30am 28.4 ESE 7 9 1009.0 - 2.0 - - - - - - -
18/11:00am 26.5 SSE 5 9 1009.1 - 2.0 - - - - - - -
18/10:30am 26.6 SE 13 22 1009.9 - 19.2 Rain - - - - - -
18/10:00am 26.9 ENE 11 22 1010.2 - 5.8 - - - - - - -
18/09:30am 29.6 SE 9 11 1010.2 - 0.0 - - - - - - -
18/09:00am 30.7 SE 8 11 1010.0 - 0.0 - - - - - - -
18/08:30am 30.4 SE 7 9 1009.8 - 0.0 - - - - - - -
18/08:00am 29.6 SSE 6 7 1009.5 - 0.0 - - - - - - -
18/07:30am 29.0 SSW 6 8 1008.9 - 0.0 - - - - - - -
18/07:00am 28.7 SSW 5 8 1008.2 - 0.0 - - - - - - -
18/06:30am 28.5 S 3 5 1008.1 - 0.0 - - - - - - -
18/06:00am 28.2 SW 4 4 1007.9 - 0.0 - - - - - - -
18/05:30am 28.2 CALM 0 0 1007.9 - 0.0 - - - - - - -
18/05:00am 28.3 CALM 0 0 1007.7 - 0.0 - - - - - - -
18/04:30am 28.3 CALM 0 0 1007.6 - 0.0 - - - - - - -
18/04:00am 28.4 CALM 0 0 1007.5 - 0.0 - - - - - - -
18/03:30am 28.4 W 4 5 1007.3 - 0.0 - - - - - - -
18/03:00am 28.5 SSW 4 5 1007.8 - 0.0 - - - - - - -
18/02:30am 28.8 WNW 1 3 1008.0 - 0.0 - - - - - - -
18/02:00am 28.8 CALM 0 0 1008.0 - 0.0 - - - - - - -
18/01:30am 29.0 W 3 5 1008.6 - 0.0 - - - - - - -
18/01:00am 29.1 SW 4 5 1009.2 - 0.0 - - - - - - -
18/12:30am 29.1 SW 4 5 1009.6 - 0.0 - - - - - - -
18/12:00am 29.3 SSW 4 5 1009.8 - 0.0 - - - - - - -
 
Date/Time
CST
Temp
°C
Wind Pressure Rain since
9am
mm
Weather Cloud Vis
km
Sea
Height
m
Swell
Dir  Spd
kts
Gust
kts
hPa Trend Height
m
Period
s
Dir
17/11:30pm 29.4 CALM 0 0 1010.2 - 0.0 - - - - - - -
17/11:00pm 29.7 ENE 3 5 1010.5 - 0.0 - - - - - - -
17/10:30pm 29.7 NE 5 6 1009.9 - 0.0 - - - - - - -
17/10:00pm 29.7 NE 6 7 1009.5 - 0.0 - - - - - - -
17/09:30pm 29.9 NNE 7 10 1009.3 - 0.0 - - - - - - -
17/09:00pm 29.7 NNE 9 11 1008.6 - 0.0 - - - - - - -
17/08:30pm 29.9 N 11 14 1007.9 - 0.0 - - - - - - -
17/08:00pm 29.9 NNE 10 13 1007.4 - 0.0 - - - - - - -
17/07:30pm 30.1 NNE 10 13 1007.7 - 0.0 - - - - - - -
17/07:00pm 30.3 NNE 11 13 1007.1 - 0.0 - - - - - - -
17/06:30pm 30.4 NNE 10 13 1006.6 - 0.0 - - - - - - -
17/06:00pm 31.6 NNE 10 12 1006.6 - 0.0 - - - - - - -
17/05:30pm 31.8 NNE 11 14 1006.0 - 0.0 - - - - - - -
17/05:00pm 31.5 NNE 10 12 1006.0 - 0.0 - - - - - - -
17/04:30pm 31.7 NNE 9 11 1006.1 - 0.0 - - - - - - -
17/04:00pm 31.3 N 9 12 1006.4 - 0.0 - - - - - - -
17/03:30pm 30.7 N 9 11 1006.9 - 0.0 - - - - - - -
17/03:00pm 32.3 NE 7 9 1007.2 - 0.0 - - - - - - -
17/02:30pm 31.5 NE 6 8 1007.5 - 0.0 - - - - - - -
17/02:00pm 31.4 ENE 7 8 1007.9 - 0.0 - - - - - - -
17/01:30pm 30.1 ENE 11 14 1008.4 - 0.0 - - - - - - -
17/01:00pm 30.4 ENE 22 28 1008.8 - 0.0 - - - - - - -
17/12:30pm 29.4 NE 23 31 1010.0 - 0.0 - - - - - - -
17/12:15pm 30.2 ENE 13 28 1009.9 - 0.0 - - - - - - -
17/12:00pm 31.5 E 9 11 1009.7 - 0.0 - - - - - - -
17/11:30am 32.4 E 9 10 1009.9 - 0.0 - - - - - - -
17/11:00am 32.5 E 8 9 1010.1 - 0.0 - - - - - - -
17/10:30am 31.9 ESE 7 9 1010.1 - 0.0 - - - - - - -
17/10:00am 32.1 ESE 9 10 1010.4 - 0.0 - - - - - - -
17/09:30am 31.3 ESE 9 10 1010.4 - 0.0 - - - - - - -
17/09:00am 31.4 ESE 7 8 1010.1 - 0.0 - - - - - - -
17/08:30am 31.3 SE 6 8 1009.8 - 0.0 - - - - - - -
17/08:00am 30.9 SE 4 6 1009.5 - 0.0 - - - - - - -
17/07:30am 30.2 SE 6 7 1009.1 - 0.0 - - - - - - -
17/07:00am 29.2 SE 7 8 1009.0 - 0.0 - - - - - - -
17/06:30am 28.9 ESE 5 7 1008.7 - 0.0 - - - - - - -
17/06:00am 29.0 ESE 5 7 1008.6 - 0.0 - - - - - - -
17/05:30am 28.8 E 5 6 1008.4 - 0.0 - - - - - - -
17/05:00am 29.0 ENE 4 5 1008.1 - 0.0 - - - - - - -
17/04:30am 29.0 ENE 4 6 1007.9 - 0.0 - - - - - - -
17/04:00am 29.1 NE 5 7 1008.0 - 0.0 - - - - - - -
17/03:30am 29.3 E 6 7 1008.1 - 0.0 - - - - - - -
17/03:00am 28.8 E 4 6 1008.0 - 0.0 - - - - - - -
17/02:30am 29.1 ENE 3 4 1008.1 - 0.0 - - - - - - -
17/02:00am 29.0 ESE 3 4 1008.2 - 0.0 - - - - - - -
17/01:30am 29.1 SW 1 3 1008.5 - 0.0 - - - - - - -
17/01:00am 29.3 CALM 0 0 1008.7 - 0.0 - - - - - - -
17/12:30am 29.2 WSW 3 4 1009.0 - 0.0 - - - - - - -
17/12:00am 29.4 WSW 4 5 1009.2 - 0.0 - - - - - - -
 
Date/Time
CST
Temp
°C
Wind Pressure Rain since
9am
mm
Weather Cloud Vis
km
Sea
Height
m
Swell
Dir  Spd
kts
Gust
kts
hPa Trend Height
m
Period
s
Dir
16/11:30pm 29.3 WSW 5 6 1009.3 - 0.0 - - - - - - -
16/11:00pm 29.4 WSW 5 7 1009.4 - 0.0 - - - - - - -
16/10:30pm 29.4 W 6 7 1009.0 - 0.0 - - - - - - -
16/10:00pm 29.4 W 6 7 1008.7 - 0.0 - - - - - - -
16/09:30pm 29.3 WNW 5 7 1008.7 - 0.0 - - - - - - -
16/09:00pm 29.4 WNW 6 7 1008.4 - 0.0 - - - - - - -
16/08:30pm 29.3 NW 5 7 1008.0 - 0.0 - - - - - - -
16/08:00pm 29.4 NW 4 6 1007.8 - 0.0 - - - - - - -

Other Formats:

Comma delimited format used in spreadsheet applications
http://www.bom.gov.au/fwo/IDD60701/IDD60701.94102.axf

JavaScript Object Notation format (JSON) in row-major order
http://www.bom.gov.au/fwo/IDD60701/IDD60701.94102.json